UKLU/UDJ METAR and TAF weather

Enter ICAO airport designator
Station Type Date Time Source
UKLU METAR 2022/01/18 07:30 UTC NOAA

UKLU 180730Z 29006MPS 260V320 9999 BKN048 01/M05 Q1026 NOSIG


Station Type Date Time Source
UKLU Decoded METAR 2022/01/18 07:30 UTC NOAA

Uzhhorod, Ukraine (UKLU) 48-38-05N 022-15-53E
Jan 18, 2022 - 02:30 AM EST / 2022.01.18 0730 UTC
Wind: from the WNW (290 degrees) at 13 MPH (12 KT) (direction variable):0
Visibility: greater than 7 mile(s):0
Sky conditions: mostly cloudy
Temperature: 33 F (1 C)
Windchill: 23 F (-5 C):1
Dew Point: 23 F (-5 C)
Relative Humidity: 64%
Pressure (altimeter): 30.30 in. Hg (1026 hPa)
ob: UKLU 180730Z 29006MPS 260V320 9999 BKN048 01/M05 Q1026 NOSIG
cycle: 7

Station Type Date Time Source
UKLU TAF 2021/10/15 21:39 UTC NOAA

TAF
AMD TAF
AMD UKLU 152133Z 1421/1606 CNL

Example: see airport list